createdAt,value
2022-07-30T00:00:52.614Z,2.58
2022-07-30T00:01:56.063Z,2.70
2022-07-30T00:02:59.189Z,2.58
2022-07-30T00:04:01.281Z,2.65
2022-07-30T00:05:05.161Z,2.80
2022-07-30T00:06:07.276Z,2.33
2022-07-30T00:07:10.674Z,2.80
2022-07-30T00:08:12.935Z,3.08
2022-07-30T00:09:15.993Z,2.72
2022-07-30T00:10:18.252Z,2.63
2022-07-30T00:11:27.227Z,2.55
2022-07-30T00:12:29.854Z,2.53
2022-07-30T00:13:32.956Z,2.65
2022-07-30T00:14:35.609Z,2.42
2022-07-30T00:15:38.912Z,2.88
2022-07-30T00:16:40.995Z,2.25
2022-07-30T00:17:46.755Z,2.38
2022-07-30T00:18:51.636Z,2.72
2022-07-30T00:19:54.778Z,2.47
2022-07-30T00:20:59.282Z,3.03
2022-07-30T00:22:01.550Z,2.65
2022-07-30T00:23:05.239Z,2.55
2022-07-30T00:24:08.605Z,2.65
2022-07-30T00:25:11.740Z,2.58
2022-07-30T00:26:15.118Z,2.50
2022-07-30T00:27:19.113Z,2.45
2022-07-30T00:28:22.224Z,2.63
2022-07-30T00:29:25.656Z,2.45
2022-07-30T00:30:27.965Z,2.50
2022-07-30T00:31:34.509Z,2.67
2022-07-30T00:32:36.964Z,2.22
2022-07-30T00:33:41.469Z,2.67
2022-07-30T00:34:44.564Z,2.50
2022-07-30T00:35:47.749Z,2.80
2022-07-30T00:36:50.260Z,2.65
2022-07-30T00:37:53.812Z,2.83
2022-07-30T00:38:56.365Z,2.90
2022-07-30T00:40:01.147Z,2.80
2022-07-30T00:41:04.560Z,2.50
2022-07-30T00:42:07.845Z,3.00
2022-07-30T00:43:14.692Z,2.50
2022-07-30T00:44:18.048Z,2.65
2022-07-30T00:45:21.752Z,2.50
2022-07-30T00:46:25.384Z,2.58
2022-07-30T00:47:29.375Z,2.63
2022-07-30T00:48:31.651Z,2.65
2022-07-30T00:49:37.727Z,2.45
2022-07-30T00:50:42.780Z,2.58
2022-07-30T00:51:48.520Z,3.03
2022-07-30T00:52:50.818Z,3.05
2022-07-30T00:53:54.293Z,2.92
2022-07-30T00:54:56.766Z,2.60
2022-07-30T00:56:00.200Z,2.53
2022-07-30T00:57:02.980Z,2.80
2022-07-30T00:58:06.408Z,2.70
2022-07-30T00:59:09.184Z,2.47
2022-07-30T01:00:15.152Z,2.97
2022-07-30T01:01:17.553Z,2.42
2022-07-30T01:02:21.794Z,2.33
2022-07-30T01:03:23.890Z,2.45
2022-07-30T01:04:27.131Z,2.47
2022-07-30T01:05:31.071Z,2.53
2022-07-30T01:06:34.250Z,2.65
2022-07-30T01:07:36.713Z,2.80
2022-07-30T01:08:40.509Z,2.42
2022-07-30T01:09:43.043Z,2.55
2022-07-30T01:10:51.886Z,2.78
2022-07-30T01:11:54.845Z,2.40
2022-07-30T01:12:59.155Z,2.47
2022-07-30T01:14:01.577Z,2.63
2022-07-30T01:15:07.079Z,2.72
2022-07-30T01:16:09.807Z,2.58
2022-07-30T01:17:13.057Z,3.15
2022-07-30T01:18:18.511Z,2.78
2022-07-30T01:19:46.342Z,2.72
2022-07-30T01:21:00.977Z,2.53
2022-07-30T01:22:17.053Z,2.63
2022-07-30T01:23:26.370Z,2.95
2022-07-30T01:24:34.928Z,2.85
2022-07-30T01:25:56.119Z,2.60
2022-07-30T01:26:59.791Z,2.85
2022-07-30T01:28:09.166Z,2.40
2022-07-30T01:29:15.219Z,2.53
2022-07-30T01:30:25.926Z,2.33
2022-07-30T01:32:35.722Z,2.83
2022-07-30T01:33:43.650Z,3.05
2022-07-30T01:34:48.068Z,2.70
2022-07-30T01:35:52.898Z,2.78
2022-07-30T01:36:57.765Z,2.88
2022-07-30T01:38:05.187Z,2.70
2022-07-30T01:39:07.528Z,2.95
2022-07-30T01:40:11.983Z,2.70
2022-07-30T01:41:17.172Z,2.33
2022-07-30T01:42:21.667Z,2.95
2022-07-30T01:43:26.901Z,3.00
2022-07-30T01:44:29.682Z,3.03
2022-07-30T01:45:33.875Z,2.70
2022-07-30T01:46:44.415Z,3.05
2022-07-30T01:47:48.476Z,2.70
2022-07-30T01:48:52.312Z,2.67
2022-07-30T01:49:56.987Z,3.00
2022-07-30T01:51:02.567Z,2.97
2022-07-30T01:52:07.387Z,2.88
2022-07-30T01:53:10.695Z,2.67
2022-07-30T01:54:14.691Z,2.90
2022-07-30T01:55:25.707Z,2.75
2022-07-30T01:56:32.486Z,2.60
2022-07-30T01:57:39.809Z,2.92
2022-07-30T01:58:43.931Z,2.80
2022-07-30T02:00:02.013Z,3.05
2022-07-30T02:01:08.803Z,3.00
2022-07-30T02:02:10.928Z,2.70
2022-07-30T02:03:14.186Z,2.33
2022-07-30T02:04:19.083Z,2.58
2022-07-30T02:05:22.286Z,2.60
2022-07-30T02:06:33.168Z,2.80
2022-07-30T02:07:42.210Z,2.60
2022-07-30T02:08:51.439Z,2.60
2022-07-30T02:09:59.104Z,2.72
2022-07-30T02:11:07.336Z,2.40
2022-07-30T02:12:32.184Z,2.50
2022-07-30T02:13:47.500Z,2.80
2022-07-30T02:14:54.974Z,2.60
2022-07-30T02:16:02.646Z,2.70
2022-07-30T02:17:18.887Z,2.58
2022-07-30T02:18:28.708Z,2.88
2022-07-30T02:19:36.647Z,2.65
2022-07-30T02:20:49.564Z,2.67
2022-07-30T02:21:58.313Z,2.97
2022-07-30T02:23:04.427Z,2.78
2022-07-30T02:24:12.243Z,2.78
2022-07-30T02:25:20.187Z,3.20
2022-07-30T02:26:24.627Z,3.08
2022-07-30T02:27:34.693Z,2.97
2022-07-30T02:28:45.853Z,2.72
2022-07-30T02:29:50.797Z,2.70
2022-07-30T02:30:56.683Z,2.63
2022-07-30T02:32:01.913Z,2.90
2022-07-30T02:33:10.561Z,2.63
2022-07-30T02:34:14.153Z,2.40
2022-07-30T02:35:21.328Z,2.63
2022-07-30T02:36:25.755Z,3.13
2022-07-30T02:37:43.644Z,2.85
2022-07-30T02:38:50.728Z,2.80
2022-07-30T02:39:55.882Z,2.90
2022-07-30T02:41:01.733Z,2.65
2022-07-30T02:42:06.541Z,2.70
2022-07-30T02:43:11.414Z,2.65
2022-07-30T02:44:17.082Z,2.63
2022-07-30T02:45:21.298Z,2.47
2022-07-30T02:46:25.052Z,2.60
2022-07-30T02:47:49.432Z,2.50
2022-07-30T02:48:54.827Z,2.70
2022-07-30T02:49:59.638Z,2.58
2022-07-30T02:51:05.480Z,2.67
2022-07-30T02:52:12.318Z,2.88
2022-07-30T02:53:16.844Z,2.70
2022-07-30T02:54:20.469Z,2.97
2022-07-30T02:55:26.114Z,3.15
2022-07-30T02:56:29.306Z,2.70
2022-07-30T02:57:34.144Z,2.50
2022-07-30T02:58:40.347Z,2.88
2022-07-30T02:59:44.886Z,2.97
2022-07-30T03:00:50.272Z,2.60
2022-07-30T03:01:54.076Z,3.25
2022-07-30T03:02:58.710Z,3.00
2022-07-30T03:04:01.863Z,3.35
2022-07-30T03:05:07.501Z,2.75
2022-07-30T03:06:12.130Z,2.72
2022-07-30T03:07:15.792Z,3.20
2022-07-30T03:08:19.306Z,2.80
2022-07-30T03:09:24.415Z,2.70
2022-07-30T03:10:29.674Z,2.88
2022-07-30T03:11:34.516Z,2.85
2022-07-30T03:12:39.721Z,2.88
2022-07-30T03:13:43.221Z,3.10
2022-07-30T03:14:46.304Z,2.72
2022-07-30T03:15:51.102Z,2.88
2022-07-30T03:16:59.127Z,3.05
2022-07-30T03:18:03.606Z,2.83
2022-07-30T03:19:09.979Z,2.72
2022-07-30T03:20:17.809Z,2.90
2022-07-30T03:21:24.294Z,2.78
2022-07-30T03:22:32.592Z,2.78
2022-07-30T03:23:38.173Z,3.03
2022-07-30T03:24:42.730Z,2.75
2022-07-30T03:25:50.018Z,2.67
2022-07-30T03:26:58.148Z,3.20
2022-07-30T03:28:03.886Z,2.95
2022-07-30T03:29:09.618Z,2.80
2022-07-30T03:30:15.452Z,3.10
2022-07-30T03:31:18.540Z,3.03
2022-07-30T03:32:26.240Z,3.40
2022-07-30T03:33:37.962Z,2.83
2022-07-30T03:34:43.879Z,2.80
2022-07-30T03:35:49.801Z,2.97
2022-07-30T03:36:54.003Z,2.97
2022-07-30T03:37:57.108Z,3.55
2022-07-30T03:39:01.276Z,3.42
2022-07-30T03:40:04.599Z,3.55
2022-07-30T03:41:09.772Z,3.70
2022-07-30T03:42:12.429Z,3.65
2022-07-30T03:43:18.374Z,3.92
2022-07-30T03:44:37.965Z,4.47
2022-07-30T03:45:44.694Z,4.20
2022-07-30T03:46:50.729Z,4.57
2022-07-30T03:47:55.324Z,3.85
2022-07-30T03:48:58.972Z,4.10
2022-07-30T03:50:02.096Z,4.05
2022-07-30T03:51:10.154Z,3.65
2022-07-30T03:52:15.560Z,4.68
2022-07-30T03:53:19.439Z,3.88
2022-07-30T03:54:41.785Z,3.88
2022-07-30T03:56:20.059Z,3.75
2022-07-30T03:57:42.444Z,3.67
2022-07-30T03:58:45.594Z,3.45
2022-07-30T03:59:51.700Z,3.70
2022-07-30T04:00:55.806Z,3.22
2022-07-30T04:02:07.333Z,4.00
2022-07-30T04:03:34.923Z,3.78
2022-07-30T04:04:42.337Z,3.65
2022-07-30T04:05:45.416Z,3.35
2022-07-30T04:06:47.886Z,3.40
2022-07-30T04:07:51.049Z,3.60
2022-07-30T04:08:55.658Z,3.47
2022-07-30T04:09:58.729Z,3.13
2022-07-30T04:11:19.138Z,3.20
2022-07-30T04:12:44.336Z,3.20
2022-07-30T04:13:46.776Z,2.92
2022-07-30T04:14:51.329Z,3.05
2022-07-30T04:16:05.123Z,2.83
2022-07-30T04:17:25.632Z,2.90
2022-07-30T04:18:31.371Z,3.35
2022-07-30T04:19:41.659Z,2.90
2022-07-30T04:20:46.222Z,2.90
2022-07-30T04:21:50.530Z,3.13
2022-07-30T04:22:53.869Z,3.15
2022-07-30T04:24:03.203Z,3.35
2022-07-30T04:25:10.493Z,3.08
2022-07-30T04:26:26.741Z,3.10
2022-07-30T04:27:30.555Z,2.92
2022-07-30T04:28:32.977Z,3.05
2022-07-30T04:29:36.290Z,3.17
2022-07-30T04:30:41.169Z,2.90
2022-07-30T04:31:44.311Z,2.85
2022-07-30T04:33:16.816Z,3.20
2022-07-30T04:34:38.341Z,2.97
2022-07-30T04:35:50.331Z,3.00
2022-07-30T04:37:00.857Z,2.55
2022-07-30T04:38:04.614Z,2.78
2022-07-30T04:39:10.064Z,3.00
2022-07-30T04:40:12.401Z,2.70
2022-07-30T04:41:15.544Z,3.05
2022-07-30T04:42:50.958Z,2.85
2022-07-30T04:43:54.042Z,3.40
2022-07-30T04:44:58.400Z,3.08
2022-07-30T04:46:04.242Z,2.90
2022-07-30T04:47:07.500Z,3.50
2022-07-30T04:48:14.161Z,3.60
2022-07-30T04:49:36.164Z,3.63
2022-07-30T04:50:42.151Z,3.28
2022-07-30T04:51:48.379Z,4.60
2022-07-30T04:52:52.444Z,3.15
2022-07-30T04:54:03.401Z,3.55
2022-07-30T04:55:08.109Z,3.05
2022-07-30T04:56:12.690Z,3.00
2022-07-30T04:57:15.816Z,3.05
2022-07-30T04:58:21.863Z,2.88
2022-07-30T04:59:25.353Z,3.08
2022-07-30T05:00:32.356Z,2.85
2022-07-30T05:01:40.717Z,3.03
2022-07-30T05:02:45.584Z,2.90
2022-07-30T05:03:50.030Z,3.05
2022-07-30T05:04:55.526Z,2.50
2022-07-30T05:05:58.801Z,2.78
2022-07-30T05:07:08.138Z,3.40
2022-07-30T05:08:10.382Z,2.88
2022-07-30T05:09:16.096Z,4.10
2022-07-30T05:10:20.057Z,3.60
2022-07-30T05:11:23.419Z,4.03
2022-07-30T05:12:33.040Z,4.32
2022-07-30T05:13:38.356Z,5.07
2022-07-30T05:14:47.909Z,3.70
2022-07-30T05:15:51.888Z,3.47
2022-07-30T05:16:56.703Z,3.25
2022-07-30T05:18:00.134Z,3.35
2022-07-30T05:19:02.393Z,2.70
2022-07-30T05:20:12.112Z,2.67
2022-07-30T05:21:40.965Z,2.33
2022-07-30T05:22:43.008Z,2.67
2022-07-30T05:23:54.975Z,2.63
2022-07-30T05:25:18.511Z,2.50
2022-07-30T05:26:21.289Z,2.72
2022-07-30T05:27:26.829Z,2.83
2022-07-30T05:28:29.005Z,2.53
2022-07-30T05:29:34.808Z,2.25
2022-07-30T05:30:46.393Z,2.60
2022-07-30T05:31:53.285Z,2.40
2022-07-30T05:32:57.658Z,2.58
2022-07-30T05:34:03.604Z,3.38
2022-07-30T05:35:16.255Z,2.90
2022-07-30T05:36:19.417Z,2.60
2022-07-30T05:37:21.446Z,2.13
2022-07-30T05:38:24.635Z,2.50
2022-07-30T05:40:04.752Z,2.55
2022-07-30T05:41:33.026Z,3.70
2022-07-30T05:42:36.422Z,3.30
2022-07-30T05:43:38.587Z,3.30
2022-07-30T05:44:41.666Z,2.40
2022-07-30T05:45:43.796Z,2.90
2022-07-30T05:46:46.898Z,2.50
2022-07-30T05:47:49.105Z,2.55
2022-07-30T05:48:53.638Z,2.30
2022-07-30T05:49:55.754Z,2.30
2022-07-30T05:50:58.814Z,2.55
2022-07-30T05:52:00.848Z,2.20
2022-07-30T05:53:04.124Z,2.33
2022-07-30T05:54:25.934Z,2.40
2022-07-30T05:55:43.896Z,2.60
2022-07-30T05:57:07.235Z,2.00
2022-07-30T05:58:15.647Z,2.20
2022-07-30T05:59:18.647Z,2.40
2022-07-30T06:00:40.524Z,2.42
2022-07-30T06:01:42.894Z,2.60
2022-07-30T06:02:52.923Z,2.28
2022-07-30T06:04:01.908Z,2.40
2022-07-30T06:05:17.055Z,2.20
2022-07-30T06:06:23.100Z,2.50
2022-07-30T06:07:27.051Z,2.30
2022-07-30T06:08:31.491Z,2.20
2022-07-30T06:09:36.878Z,2.33
2022-07-30T06:10:40.659Z,2.45
2022-07-30T06:11:46.151Z,2.90
2022-07-30T06:12:49.500Z,3.13
2022-07-30T06:13:53.785Z,2.90
2022-07-30T06:14:56.861Z,2.60
2022-07-30T06:16:13.146Z,2.72
2022-07-30T06:17:15.291Z,2.60
2022-07-30T06:18:36.449Z,2.40
2022-07-30T06:19:48.617Z,2.30
2022-07-30T06:20:52.422Z,2.40
2022-07-30T06:22:07.087Z,2.33
2022-07-30T06:23:15.461Z,2.47
2022-07-30T06:24:54.163Z,2.47
2022-07-30T06:26:01.125Z,2.28
2022-07-30T06:27:05.480Z,2.30
2022-07-30T06:28:34.711Z,2.13
2022-07-30T06:29:30.777Z,2.45
2022-07-30T06:30:32.833Z,2.10
2022-07-30T06:31:38.330Z,2.42
2022-07-30T06:32:41.154Z,2.25
2022-07-30T06:33:44.364Z,2.28
2022-07-30T06:34:48.097Z,2.60
2022-07-30T06:35:51.138Z,2.55
2022-07-30T06:36:56.724Z,2.22
2022-07-30T06:38:07.374Z,2.45
2022-07-30T06:39:56.161Z,2.72
2022-07-30T06:41:03.024Z,2.22
2022-07-30T06:42:34.045Z,2.65
2022-07-30T06:44:09.689Z,2.90
2022-07-30T06:45:31.442Z,2.67
2022-07-30T06:46:53.285Z,3.00
2022-07-30T06:48:00.170Z,2.38
2022-07-30T06:49:06.620Z,2.80
2022-07-30T06:50:10.845Z,2.13
2022-07-30T06:51:14.586Z,2.50
2022-07-30T06:52:18.887Z,2.72
2022-07-30T06:53:26.675Z,2.63
2022-07-30T06:54:52.605Z,2.55
2022-07-30T06:56:06.215Z,2.70
2022-07-30T06:57:18.871Z,2.80
2022-07-30T06:58:25.574Z,2.45
2022-07-30T06:59:56.217Z,2.58
2022-07-30T07:01:26.899Z,2.20
2022-07-30T07:02:32.528Z,2.40
2022-07-30T07:03:47.634Z,2.47
2022-07-30T07:04:50.137Z,2.70
2022-07-30T07:05:54.912Z,2.83
2022-07-30T07:06:57.496Z,2.53
2022-07-30T07:08:10.570Z,2.65
2022-07-30T07:09:18.404Z,2.28
2022-07-30T07:10:34.015Z,2.55
2022-07-30T07:12:15.466Z,2.60
2022-07-30T07:13:18.934Z,2.65
2022-07-30T07:14:21.974Z,2.33
2022-07-30T07:15:36.425Z,2.80
2022-07-30T07:16:43.074Z,3.05
2022-07-30T07:18:17.614Z,2.88
2022-07-30T07:20:00.437Z,2.53
2022-07-30T07:20:51.111Z,2.47
2022-07-30T07:21:54.818Z,2.83
2022-07-30T07:22:57.961Z,2.60
2022-07-30T07:24:02.741Z,2.38
2022-07-30T07:25:31.743Z,2.67
2022-07-30T07:26:35.036Z,2.70
2022-07-30T07:27:37.483Z,2.58
2022-07-30T07:28:41.259Z,2.78
2022-07-30T07:30:05.512Z,2.53
2022-07-30T07:31:07.456Z,2.60
2022-07-30T07:32:10.665Z,3.10
2022-07-30T07:33:16.467Z,2.90
2022-07-30T07:34:21.854Z,2.70
2022-07-30T07:35:24.873Z,2.60
2022-07-30T07:36:26.961Z,2.80
2022-07-30T07:37:31.559Z,2.53
2022-07-30T07:38:34.534Z,2.30
2022-07-30T07:39:42.045Z,2.60
2022-07-30T07:40:44.732Z,2.70
2022-07-30T07:41:48.345Z,2.80
2022-07-30T07:42:53.991Z,3.00
2022-07-30T07:43:57.006Z,2.50
2022-07-30T07:45:08.143Z,2.65
2022-07-30T07:46:33.089Z,2.80
2022-07-30T07:47:43.803Z,2.55
2022-07-30T07:49:10.929Z,2.72
2022-07-30T07:50:22.878Z,2.80
2022-07-30T07:51:47.619Z,2.92
2022-07-30T07:52:51.811Z,2.60
2022-07-30T07:54:19.824Z,2.72
2022-07-30T07:55:17.378Z,2.70
2022-07-30T07:56:20.372Z,2.97
2022-07-30T07:57:24.441Z,2.83
2022-07-30T07:58:26.971Z,2.78
2022-07-30T07:59:39.783Z,2.80
2022-07-30T08:00:47.158Z,3.10
2022-07-30T08:01:50.625Z,3.05
2022-07-30T08:03:13.178Z,2.83
2022-07-30T08:04:16.566Z,2.80
2022-07-30T08:06:01.023Z,2.50
2022-07-30T08:07:23.099Z,2.63
2022-07-30T08:08:54.607Z,2.30
2022-07-30T08:10:16.240Z,2.97
2022-07-30T08:11:37.812Z,2.67
2022-07-30T08:13:05.263Z,2.47
2022-07-30T08:14:40.326Z,2.67
2022-07-30T08:16:08.330Z,2.80
2022-07-30T08:17:48.562Z,2.75
2022-07-30T08:18:57.260Z,2.60
2022-07-30T08:20:18.235Z,2.60
2022-07-30T08:21:21.704Z,2.67
2022-07-30T08:22:25.500Z,2.97
2022-07-30T08:23:27.814Z,3.10
2022-07-30T08:24:32.713Z,2.85
2022-07-30T08:25:35.033Z,3.38
2022-07-30T08:26:38.238Z,3.38
2022-07-30T08:27:40.431Z,3.72
2022-07-30T08:28:46.261Z,3.67
2022-07-30T08:29:48.671Z,4.32
2022-07-30T08:30:51.879Z,3.85
2022-07-30T08:31:54.070Z,4.40
2022-07-30T08:33:00.499Z,3.70
2022-07-30T08:34:02.715Z,4.10
2022-07-30T08:35:07.289Z,3.80
2022-07-30T08:36:10.329Z,3.80
2022-07-30T08:37:14.813Z,3.53
2022-07-30T08:38:17.050Z,3.65
2022-07-30T08:39:20.632Z,3.50
2022-07-30T08:40:28.147Z,3.42
2022-07-30T08:41:42.260Z,3.13
2022-07-30T08:42:45.762Z,3.60
2022-07-30T08:43:50.889Z,3.35
2022-07-30T08:44:57.397Z,3.45
2022-07-30T08:46:01.648Z,3.38
2022-07-30T08:47:41.034Z,3.03
2022-07-30T08:48:47.304Z,3.28
2022-07-30T08:49:52.799Z,3.20
2022-07-30T08:50:59.656Z,2.90
2022-07-30T08:52:26.246Z,2.83
2022-07-30T08:53:35.963Z,3.28
2022-07-30T08:54:40.516Z,3.33
2022-07-30T08:55:44.536Z,3.10
2022-07-30T08:56:49.490Z,2.95
2022-07-30T08:57:52.289Z,2.92
2022-07-30T08:58:56.326Z,3.35
2022-07-30T09:00:00.529Z,2.95
2022-07-30T09:01:07.550Z,2.85
2022-07-30T09:02:12.949Z,2.75
2022-07-30T09:03:30.602Z,3.08
2022-07-30T09:04:35.292Z,3.03
2022-07-30T09:05:39.092Z,2.80
2022-07-30T09:06:43.330Z,2.97
2022-07-30T09:07:46.694Z,2.80
2022-07-30T09:08:54.786Z,2.80
2022-07-30T09:09:58.769Z,2.60
2022-07-30T09:11:04.310Z,2.75
2022-07-30T09:12:40.351Z,3.50
2022-07-30T09:13:44.512Z,2.80
2022-07-30T09:15:03.139Z,2.60
2022-07-30T09:16:07.925Z,2.70
2022-07-30T09:17:13.235Z,2.88
2022-07-30T09:18:28.321Z,2.60
2022-07-30T09:19:31.544Z,2.60
2022-07-30T09:20:35.260Z,2.60
2022-07-30T09:21:42.040Z,2.78
2022-07-30T09:23:02.857Z,2.70
2022-07-30T09:24:26.388Z,3.00
2022-07-30T09:25:34.740Z,3.20
2022-07-30T09:27:02.087Z,2.97
2022-07-30T09:28:33.620Z,2.88
2022-07-30T09:29:58.407Z,2.85
2022-07-30T09:31:21.034Z,3.28
2022-07-30T09:32:49.136Z,3.22
2022-07-30T09:34:30.691Z,2.85
2022-07-30T09:36:02.748Z,2.90
2022-07-30T09:37:36.804Z,2.95
2022-07-30T09:38:45.744Z,3.10
2022-07-30T09:40:31.439Z,2.60
2022-07-30T09:42:21.827Z,2.58
2022-07-30T09:43:30.844Z,3.30
2022-07-30T09:44:46.873Z,2.90
2022-07-30T09:45:56.682Z,3.08
2022-07-30T09:47:02.828Z,3.17
2022-07-30T09:48:22.015Z,3.05
2022-07-30T09:49:27.091Z,2.90
2022-07-30T09:50:30.929Z,2.97
2022-07-30T09:51:55.926Z,3.10
2022-07-30T09:54:51.705Z,3.53
2022-07-30T09:55:57.051Z,3.30
2022-07-30T09:57:25.467Z,3.20
2022-07-30T09:58:45.536Z,3.08
2022-07-30T09:59:48.947Z,3.17
2022-07-30T10:00:58.326Z,3.15
2022-07-30T10:02:19.499Z,2.88
2022-07-30T10:03:43.962Z,3.42
2022-07-30T10:05:22.830Z,3.15
2022-07-30T10:06:33.313Z,3.10
2022-07-30T10:07:43.594Z,3.20
2022-07-30T10:08:50.709Z,3.40
2022-07-30T10:09:54.226Z,3.15
2022-07-30T10:10:57.436Z,3.25
2022-07-30T10:12:11.130Z,3.63
2022-07-30T10:13:20.573Z,3.50
2022-07-30T10:14:32.292Z,3.85
2022-07-30T10:15:38.083Z,3.10
2022-07-30T10:16:41.571Z,3.53
2022-07-30T10:17:44.689Z,3.60
2022-07-30T10:19:19.204Z,2.92
2022-07-30T10:20:55.799Z,3.03
2022-07-30T10:22:37.731Z,3.20
2022-07-30T10:24:00.433Z,3.45
2022-07-30T10:25:49.656Z,3.40
2022-07-30T10:27:16.597Z,3.30
2022-07-30T10:28:37.020Z,3.38
2022-07-30T10:29:43.876Z,3.67
2022-07-30T10:30:50.511Z,3.30
2022-07-30T10:31:54.714Z,3.75
2022-07-30T10:32:58.377Z,3.22
2022-07-30T10:34:01.650Z,3.47
2022-07-30T10:35:04.630Z,3.35
2022-07-30T10:36:09.012Z,3.40
2022-07-30T10:37:15.724Z,3.40
2022-07-30T10:38:22.943Z,3.65
2022-07-30T10:39:29.123Z,3.38
2022-07-30T10:40:43.269Z,3.63
2022-07-30T10:41:54.165Z,3.40
2022-07-30T10:43:32.858Z,3.60
2022-07-30T10:44:49.717Z,3.30
2022-07-30T10:46:04.492Z,3.78
2022-07-30T10:47:14.511Z,3.45
2022-07-30T10:48:19.642Z,3.03
2022-07-30T10:49:23.201Z,3.10
2022-07-30T10:50:29.069Z,3.00
2022-07-30T10:51:43.305Z,3.10
2022-07-30T10:52:54.378Z,3.42
2022-07-30T10:53:57.962Z,2.90
2022-07-30T10:55:01.039Z,3.40
2022-07-30T10:56:12.087Z,3.47
2022-07-30T10:57:22.852Z,3.50
2022-07-30T10:59:02.973Z,2.80
2022-07-30T11:00:15.525Z,3.33
2022-07-30T11:01:20.933Z,3.15
2022-07-30T11:02:25.982Z,3.42
2022-07-30T11:03:40.349Z,2.97
2022-07-30T11:04:43.244Z,3.08
2022-07-30T11:05:49.107Z,3.45
2022-07-30T11:06:51.969Z,3.13
2022-07-30T11:07:55.392Z,2.80
2022-07-30T11:08:58.576Z,3.22
2022-07-30T11:10:08.868Z,2.90
2022-07-30T11:12:02.285Z,2.95
2022-07-30T11:13:09.734Z,2.90
2022-07-30T11:14:12.854Z,3.70
2022-07-30T11:15:19.294Z,4.25
2022-07-30T11:16:23.344Z,3.70
2022-07-30T11:17:26.652Z,3.90
2022-07-30T11:18:29.054Z,3.88
2022-07-30T11:19:55.123Z,3.63
2022-07-30T11:21:20.654Z,3.10
2022-07-30T11:22:28.320Z,3.13
2022-07-30T11:23:39.498Z,3.10
2022-07-30T11:24:45.549Z,2.92
2022-07-30T11:25:51.225Z,3.20
2022-07-30T11:26:55.365Z,3.70
2022-07-30T11:27:57.617Z,3.33
2022-07-30T11:29:00.686Z,3.25
2022-07-30T11:30:03.546Z,3.90
2022-07-30T11:31:30.670Z,3.38
2022-07-30T11:32:52.604Z,3.47
2022-07-30T11:34:25.875Z,3.35
2022-07-30T11:35:34.802Z,3.25
2022-07-30T11:36:37.684Z,3.28
2022-07-30T11:38:02.004Z,4.03
2022-07-30T11:39:07.541Z,3.20
2022-07-30T11:40:10.947Z,3.00
2022-07-30T11:41:14.072Z,3.08
2022-07-30T11:42:25.586Z,3.00
2022-07-30T11:43:35.033Z,2.83
2022-07-30T11:44:38.810Z,2.88
2022-07-30T11:45:42.590Z,3.03
2022-07-30T11:46:49.775Z,3.15
2022-07-30T11:47:54.936Z,3.10
2022-07-30T11:49:00.033Z,3.15
2022-07-30T11:50:02.774Z,2.97
2022-07-30T11:51:06.177Z,2.78
2022-07-30T11:52:08.711Z,3.30
2022-07-30T11:53:16.610Z,3.13
2022-07-30T11:54:18.878Z,3.00
2022-07-30T11:55:26.404Z,2.90
2022-07-30T11:56:29.567Z,2.42
2022-07-30T11:57:39.986Z,2.63
2022-07-30T11:58:44.726Z,3.22
2022-07-30T11:59:54.239Z,2.95
2022-07-30T12:02:02.732Z,2.50
2022-07-30T12:03:11.504Z,3.05
2022-07-30T12:04:13.634Z,2.47
2022-07-30T12:05:16.931Z,3.00
2022-07-30T12:06:20.608Z,2.95
2022-07-30T12:07:23.432Z,2.80
2022-07-30T12:08:33.338Z,3.20
2022-07-30T12:09:37.673Z,3.05
2022-07-30T12:10:45.565Z,3.05
2022-07-30T12:11:47.621Z,2.97
2022-07-30T12:12:50.730Z,3.05
2022-07-30T12:13:59.627Z,2.60
2022-07-30T12:15:02.107Z,2.70
2022-07-30T12:16:09.722Z,2.70
2022-07-30T12:17:14.994Z,2.40
2022-07-30T12:18:26.686Z,2.83
2022-07-30T12:19:29.286Z,2.70
2022-07-30T12:22:00.698Z,2.92
2022-07-30T12:23:03.273Z,3.10
2022-07-30T12:24:09.835Z,2.88
2022-07-30T12:25:12.871Z,2.80
2022-07-30T12:26:22.442Z,2.60
2022-07-30T12:27:24.820Z,2.90
2022-07-30T12:28:30.050Z,2.85
2022-07-30T12:29:33.036Z,3.08
2022-07-30T12:30:39.396Z,2.75
2022-07-30T12:31:43.090Z,2.70
2022-07-30T12:32:47.148Z,2.88
2022-07-30T12:33:50.184Z,3.10
2022-07-30T12:34:55.729Z,2.65
2022-07-30T12:36:00.569Z,2.90
2022-07-30T12:37:10.131Z,2.72
2022-07-30T12:38:14.299Z,3.13
2022-07-30T12:39:22.392Z,2.90
2022-07-30T12:40:24.485Z,2.63
2022-07-30T12:41:43.508Z,2.88
2022-07-30T12:42:53.245Z,2.80
2022-07-30T12:43:57.402Z,2.65
2022-07-30T12:44:59.993Z,2.90
2022-07-30T12:46:03.119Z,2.63
2022-07-30T12:47:08.033Z,2.97
2022-07-30T12:48:12.831Z,2.65
2022-07-30T12:49:22.389Z,2.63
2022-07-30T12:50:27.626Z,2.92
2022-07-30T12:51:32.622Z,2.70
2022-07-30T12:52:38.086Z,2.63
2022-07-30T12:53:40.192Z,2.90
2022-07-30T12:54:43.324Z,2.63
2022-07-30T12:55:46.513Z,2.97
2022-07-30T12:57:00.790Z,2.88
2022-07-30T12:58:08.413Z,2.90
2022-07-30T12:59:25.857Z,2.85
2022-07-30T13:00:30.101Z,3.03
2022-07-30T13:01:43.562Z,2.85
2022-07-30T13:02:45.830Z,2.88
2022-07-30T13:03:50.270Z,2.75
2022-07-30T13:05:11.577Z,2.70
2022-07-30T13:06:17.346Z,2.75
2022-07-30T13:07:20.456Z,2.78
2022-07-30T13:08:51.871Z,2.90
2022-07-30T13:10:08.891Z,3.08
2022-07-30T13:11:11.106Z,3.10
2022-07-30T13:12:15.171Z,2.80
2022-07-30T13:13:17.241Z,2.75
2022-07-30T13:14:23.614Z,2.92
2022-07-30T13:15:29.872Z,3.00
2022-07-30T13:16:32.858Z,2.70
2022-07-30T13:17:37.850Z,2.83
2022-07-30T13:18:40.780Z,3.30
2022-07-30T13:19:45.279Z,3.08
2022-07-30T13:20:48.887Z,2.75
2022-07-30T13:21:51.989Z,3.42
2022-07-30T13:22:55.986Z,3.20
2022-07-30T13:24:03.369Z,3.00
2022-07-30T13:25:06.220Z,3.22
2022-07-30T13:26:10.159Z,3.22
2022-07-30T13:27:13.216Z,3.13
2022-07-30T13:28:15.375Z,2.78
2022-07-30T13:29:18.871Z,3.20
2022-07-30T13:30:21.021Z,2.90
2022-07-30T13:31:24.694Z,2.85
2022-07-30T13:32:26.769Z,2.78
2022-07-30T13:33:29.855Z,2.95
2022-07-30T13:34:31.964Z,3.05
2022-07-30T13:35:36.440Z,3.20
2022-07-30T13:36:38.499Z,3.00
2022-07-30T13:37:41.676Z,2.90
2022-07-30T13:38:43.948Z,3.10
2022-07-30T13:39:46.956Z,3.40
2022-07-30T13:40:49.084Z,3.00
2022-07-30T13:41:52.848Z,2.70
2022-07-30T13:42:54.960Z,3.17
2022-07-30T13:43:58.005Z,3.42
2022-07-30T13:45:00.227Z,2.88
2022-07-30T13:46:04.588Z,3.08
2022-07-30T13:47:08.506Z,2.72
2022-07-30T13:48:12.621Z,3.13
2022-07-30T13:49:15.703Z,3.50
2022-07-30T13:50:18.082Z,3.03
2022-07-30T13:51:22.572Z,2.83
2022-07-30T13:52:24.668Z,2.85
2022-07-30T13:53:28.543Z,3.15
2022-07-30T13:54:30.737Z,3.60
2022-07-30T13:55:33.908Z,3.25
2022-07-30T13:56:40.757Z,3.40
2022-07-30T13:57:44.651Z,2.90
2022-07-30T13:58:47.186Z,2.83
2022-07-30T13:59:50.334Z,3.35
2022-07-30T14:00:52.657Z,3.40
2022-07-30T14:01:56.944Z,3.10
2022-07-30T14:03:00.264Z,2.85
2022-07-30T14:04:03.357Z,3.45
2022-07-30T14:05:07.192Z,3.38
2022-07-30T14:06:11.507Z,3.63
2022-07-30T14:07:15.335Z,3.65
2022-07-30T14:08:18.427Z,2.90
2022-07-30T14:09:20.466Z,3.40
2022-07-30T14:10:23.967Z,3.00
2022-07-30T14:11:26.107Z,3.50
2022-07-30T14:12:29.121Z,3.05
2022-07-30T14:13:31.166Z,3.33
2022-07-30T14:14:34.216Z,3.40
2022-07-30T14:15:36.369Z,3.20
2022-07-30T14:16:45.617Z,2.92
2022-07-30T14:17:56.369Z,3.03
2022-07-30T14:19:00.097Z,2.90
2022-07-30T14:20:02.157Z,3.20
2022-07-30T14:21:05.867Z,2.90
2022-07-30T14:22:07.947Z,2.83
2022-07-30T14:23:12.346Z,3.20
2022-07-30T14:24:16.231Z,3.10
2022-07-30T14:25:20.221Z,2.90
2022-07-30T14:26:22.275Z,3.20
2022-07-30T14:27:25.325Z,3.20
2022-07-30T14:28:27.389Z,3.10
2022-07-30T14:29:30.624Z,3.15
2022-07-30T14:30:32.693Z,2.90
2022-07-30T14:31:36.128Z,2.97
2022-07-30T14:32:38.507Z,2.95
2022-07-30T14:33:41.958Z,3.20
2022-07-30T14:34:49.468Z,2.90
2022-07-30T14:35:52.888Z,2.72
2022-07-30T14:36:54.902Z,2.80
2022-07-30T14:37:57.972Z,3.08
2022-07-30T14:39:03.846Z,2.67
2022-07-30T14:40:08.737Z,3.13
2022-07-30T14:41:10.906Z,3.25
2022-07-30T14:42:14.100Z,2.75
2022-07-30T14:43:19.255Z,2.88
2022-07-30T14:44:21.320Z,2.95
2022-07-30T14:45:24.458Z,2.60
2022-07-30T14:46:28.657Z,2.70
2022-07-30T14:47:30.759Z,2.60
2022-07-30T14:48:33.831Z,2.40
2022-07-30T14:49:36.110Z,2.75
2022-07-30T14:50:56.986Z,2.83
2022-07-30T14:52:02.398Z,2.60
2022-07-30T14:53:04.451Z,3.33
2022-07-30T14:54:11.891Z,3.00
2022-07-30T14:55:14.948Z,2.70
2022-07-30T14:56:17.699Z,3.15
2022-07-30T14:57:21.013Z,3.25
2022-07-30T14:58:23.616Z,3.03
2022-07-30T14:59:27.469Z,3.00
2022-07-30T15:00:34.763Z,2.80
2022-07-30T15:01:52.716Z,2.60
2022-07-30T15:02:54.851Z,2.50
2022-07-30T15:03:57.864Z,3.05
2022-07-30T15:04:59.970Z,2.40
2022-07-30T15:06:03.177Z,3.22
2022-07-30T15:07:05.285Z,2.60
2022-07-30T15:08:09.996Z,2.55
2022-07-30T15:09:14.638Z,2.67
2022-07-30T15:10:16.761Z,2.55
2022-07-30T15:11:20.707Z,2.65
2022-07-30T15:12:27.081Z,2.92
2022-07-30T15:13:31.772Z,2.60